createdAt,value
2022-10-28T00:01:03.286Z,31.00
2022-10-28T00:03:33.812Z,25.50
2022-10-28T00:06:02.440Z,28.00
2022-10-28T00:08:30.206Z,26.00
2022-10-28T00:11:07.792Z,25.00
2022-10-28T00:13:36.137Z,36.00
2022-10-28T00:16:04.823Z,33.50
2022-10-28T00:18:32.706Z,31.00
2022-10-28T00:21:11.412Z,27.00
2022-10-28T00:23:39.380Z,33.00
2022-10-28T00:26:08.900Z,29.00
2022-10-28T00:28:40.330Z,30.50
2022-10-28T00:31:08.811Z,32.00
2022-10-28T00:33:37.898Z,30.50
2022-10-28T00:36:16.741Z,29.50
2022-10-28T00:38:45.423Z,28.00
2022-10-28T00:41:14.727Z,24.00
2022-10-28T00:43:47.092Z,30.00
2022-10-28T00:46:26.440Z,26.00
2022-10-28T00:48:56.254Z,28.00
2022-10-28T00:51:25.241Z,29.00
2022-10-28T00:53:55.473Z,23.50
2022-10-28T00:58:59.900Z,27.00
2022-10-28T01:01:28.210Z,21.00
2022-10-28T01:03:57.272Z,23.00
2022-10-28T01:06:26.884Z,23.50
2022-10-28T01:08:57.569Z,26.00
2022-10-28T01:11:51.591Z,32.00
2022-10-28T01:14:28.361Z,22.50
2022-10-28T01:17:11.487Z,26.00
2022-10-28T01:19:58.201Z,24.00
2022-10-28T01:25:05.912Z,27.00
2022-10-28T01:27:52.101Z,24.00
2022-10-28T01:30:21.738Z,24.00
2022-10-28T01:32:49.479Z,22.00
2022-10-28T01:35:23.836Z,20.00
2022-10-28T01:38:10.621Z,24.00
2022-10-28T01:40:41.915Z,21.50
2022-10-28T01:43:16.173Z,30.00
2022-10-28T01:45:43.938Z,23.00
2022-10-28T01:48:30.637Z,29.50
2022-10-28T01:51:18.675Z,23.00
2022-10-28T01:53:50.346Z,23.00
2022-10-28T01:56:21.491Z,22.00
2022-10-28T01:58:50.694Z,21.00
2022-10-28T02:01:19.718Z,25.00
2022-10-28T02:03:47.863Z,18.00
2022-10-28T02:06:17.986Z,24.00
2022-10-28T02:09:02.439Z,23.00
2022-10-28T02:11:48.650Z,21.00
2022-10-28T02:14:21.290Z,27.00
2022-10-28T02:16:59.631Z,25.00
2022-10-28T02:19:27.406Z,23.00
2022-10-28T02:22:13.687Z,21.00
2022-10-28T02:24:49.430Z,23.00
2022-10-28T02:27:23.541Z,21.00
2022-10-28T02:29:56.230Z,20.00
2022-10-28T02:32:25.829Z,23.00
2022-10-28T02:34:56.161Z,24.00
2022-10-28T02:37:27.978Z,18.00
2022-10-28T02:39:58.134Z,22.50
2022-10-28T02:42:28.329Z,21.00
2022-10-28T02:45:00.429Z,25.00
2022-10-28T02:47:32.084Z,22.00
2022-10-28T02:50:01.891Z,21.00
2022-10-28T02:52:32.010Z,22.50
2022-10-28T02:55:01.315Z,21.00
2022-10-28T02:57:33.646Z,22.00
2022-10-28T03:00:05.654Z,29.00
2022-10-28T03:02:34.341Z,24.00
2022-10-28T03:05:02.716Z,21.00
2022-10-28T03:07:30.678Z,27.00
2022-10-28T03:09:58.561Z,22.00
2022-10-28T03:12:26.425Z,29.50
2022-10-28T03:14:54.064Z,22.00
2022-10-28T03:17:21.852Z,22.00
2022-10-28T03:19:49.570Z,23.00
2022-10-28T03:22:17.271Z,24.00
2022-10-28T03:24:45.143Z,21.00
2022-10-28T03:27:12.866Z,22.00
2022-10-28T03:29:44.860Z,24.00
2022-10-28T03:32:13.916Z,21.00
2022-10-28T03:34:41.722Z,25.00
2022-10-28T03:37:09.405Z,24.50
2022-10-28T03:39:37.403Z,25.00
2022-10-28T03:42:05.224Z,24.00
2022-10-28T03:44:32.987Z,25.00
2022-10-28T03:47:00.816Z,22.00
2022-10-28T03:49:29.546Z,26.00
2022-10-28T03:51:57.310Z,28.00
2022-10-28T03:54:25.075Z,27.00
2022-10-28T03:56:52.932Z,24.00
2022-10-28T03:59:20.904Z,23.00
2022-10-28T04:01:48.779Z,22.00
2022-10-28T04:04:16.851Z,30.00
2022-10-28T04:06:44.709Z,30.00
2022-10-28T04:09:12.579Z,27.00
2022-10-28T04:11:40.543Z,31.50
2022-10-28T04:14:08.314Z,22.50
2022-10-28T04:16:36.174Z,29.00
2022-10-28T04:19:04.048Z,25.00
2022-10-28T04:21:31.804Z,32.00
2022-10-28T04:23:59.577Z,27.00
2022-10-28T04:26:28.328Z,24.50
2022-10-28T04:28:56.021Z,27.00
2022-10-28T04:31:23.788Z,29.00
2022-10-28T04:33:52.535Z,28.00
2022-10-28T04:36:20.288Z,23.67
2022-10-28T04:38:48.224Z,29.00
2022-10-28T04:41:15.976Z,25.00
2022-10-28T04:43:44.216Z,25.00
2022-10-28T04:46:12.019Z,21.50
2022-10-28T04:48:39.723Z,21.00
2022-10-28T04:51:07.546Z,27.50
2022-10-28T04:53:35.329Z,34.50
2022-10-28T04:56:03.091Z,24.00
2022-10-28T04:58:30.941Z,28.00
2022-10-28T05:00:58.841Z,26.00
2022-10-28T05:03:26.551Z,29.00
2022-10-28T05:05:54.339Z,25.00
2022-10-28T05:08:22.104Z,24.50
2022-10-28T05:10:51.292Z,27.00
2022-10-28T05:13:19.475Z,32.00
2022-10-28T05:15:48.315Z,32.00
2022-10-28T05:18:16.208Z,37.00
2022-10-28T05:20:44.305Z,39.00
2022-10-28T05:23:12.348Z,26.50
2022-10-28T05:25:40.439Z,37.50
2022-10-28T05:28:08.522Z,39.00
2022-10-28T05:30:38.127Z,36.00
2022-10-28T05:33:06.097Z,38.00
2022-10-28T05:35:33.955Z,36.00
2022-10-28T05:38:01.593Z,32.00
2022-10-28T05:40:29.595Z,32.00
2022-10-28T05:42:57.256Z,34.00
2022-10-28T05:45:25.148Z,33.00
2022-10-28T05:47:53.764Z,32.00
2022-10-28T05:50:22.269Z,27.00
2022-10-28T05:52:51.278Z,32.00
2022-10-28T05:55:20.220Z,32.00
2022-10-28T05:57:49.086Z,34.00
2022-10-28T06:00:17.948Z,31.00
2022-10-28T06:02:45.924Z,29.50
2022-10-28T06:05:14.102Z,28.00
2022-10-28T06:07:42.163Z,33.33
2022-10-28T06:10:11.059Z,39.50
2022-10-28T06:12:38.298Z,29.00
2022-10-28T06:15:07.037Z,39.00
2022-10-28T06:17:34.974Z,39.00
2022-10-28T06:20:03.406Z,40.50
2022-10-28T06:22:31.230Z,46.00
2022-10-28T06:24:58.992Z,36.00
2022-10-28T06:27:27.576Z,49.00
2022-10-28T06:29:55.449Z,47.00
2022-10-28T06:32:23.210Z,42.00
2022-10-28T06:34:51.083Z,47.00
2022-10-28T06:37:18.943Z,44.00
2022-10-28T06:39:49.999Z,44.33
2022-10-28T06:42:18.378Z,55.00
2022-10-28T06:44:46.099Z,42.00
2022-10-28T06:47:15.361Z,32.50
2022-10-28T06:49:43.188Z,39.33
2022-10-28T06:52:11.484Z,42.00
2022-10-28T06:54:39.255Z,39.00
2022-10-28T06:57:07.103Z,37.00
2022-10-28T06:59:34.972Z,34.00
2022-10-28T07:02:03.920Z,40.00
2022-10-28T07:04:33.319Z,35.00
2022-10-28T07:07:01.240Z,44.00
2022-10-28T07:09:29.315Z,42.00
2022-10-28T07:11:59.730Z,51.33
2022-10-28T07:14:32.316Z,43.00
2022-10-28T07:17:00.426Z,52.50
2022-10-28T07:19:28.571Z,56.00
2022-10-28T07:21:56.372Z,66.00
2022-10-28T07:24:24.663Z,61.00
2022-10-28T07:26:55.509Z,63.00
2022-10-28T07:29:25.679Z,59.67
2022-10-28T07:31:56.203Z,61.33
2022-10-28T07:34:26.950Z,58.33
2022-10-28T07:36:55.761Z,62.00
2022-10-28T07:39:24.059Z,55.67
2022-10-28T07:41:51.873Z,67.33
2022-10-28T07:44:19.842Z,52.00
2022-10-28T07:46:47.517Z,54.50
2022-10-28T07:49:15.579Z,54.33
2022-10-28T07:51:43.649Z,60.33
2022-10-28T07:54:11.607Z,57.00
2022-10-28T07:56:39.667Z,49.67
2022-10-28T07:59:07.764Z,52.00
2022-10-28T08:01:35.853Z,48.00
2022-10-28T08:04:04.090Z,51.00
2022-10-28T08:06:31.791Z,50.50
2022-10-28T08:08:59.715Z,52.00
2022-10-28T08:11:27.779Z,57.00
2022-10-28T08:13:56.562Z,54.33
2022-10-28T08:16:24.447Z,47.00
2022-10-28T08:18:53.284Z,52.50
2022-10-28T08:21:21.186Z,52.00
2022-10-28T08:23:49.074Z,52.50
2022-10-28T08:26:17.530Z,49.00
2022-10-28T08:28:45.652Z,53.00
2022-10-28T08:31:13.664Z,54.00
2022-10-28T08:33:44.601Z,54.00
2022-10-28T08:36:13.697Z,46.50
2022-10-28T08:38:45.520Z,50.00
2022-10-28T08:41:13.871Z,45.67
2022-10-28T08:44:00.420Z,47.00
2022-10-28T08:46:34.423Z,45.00
2022-10-28T08:49:03.448Z,45.67
2022-10-28T08:51:37.176Z,51.67
2022-10-28T08:54:06.875Z,52.50
2022-10-28T08:56:38.021Z,46.00
2022-10-28T08:59:07.625Z,44.00
2022-10-28T09:01:39.554Z,45.00
2022-10-28T09:04:12.922Z,44.00
2022-10-28T09:06:40.674Z,39.00
2022-10-28T09:09:12.716Z,42.33
2022-10-28T09:12:07.197Z,46.00
2022-10-28T09:14:38.148Z,44.00
2022-10-28T09:17:15.339Z,52.00
2022-10-28T09:19:58.085Z,36.50
2022-10-28T09:22:44.649Z,35.00
2022-10-28T09:25:30.958Z,39.00
2022-10-28T09:28:01.783Z,30.50
2022-10-28T09:30:48.933Z,29.00
2022-10-28T09:33:29.048Z,33.50
2022-10-28T09:35:57.414Z,38.00
2022-10-28T09:38:25.195Z,35.00
2022-10-28T09:40:55.991Z,34.00
2022-10-28T09:43:28.617Z,28.50
2022-10-28T09:46:02.326Z,30.00
2022-10-28T09:48:34.695Z,25.00
2022-10-28T09:51:02.550Z,23.00
2022-10-28T09:53:43.014Z,29.00
2022-10-28T09:56:10.932Z,29.00
2022-10-28T09:58:41.219Z,23.00
2022-10-28T10:01:09.447Z,27.00
2022-10-28T10:03:40.231Z,29.00
2022-10-28T10:06:14.068Z,33.00
2022-10-28T10:08:41.998Z,28.00
2022-10-28T10:11:25.329Z,28.67
2022-10-28T10:13:55.244Z,31.00
2022-10-28T10:16:45.437Z,25.00
2022-10-28T10:19:13.683Z,24.00
2022-10-28T10:21:54.578Z,32.00
2022-10-28T10:24:22.257Z,29.50
2022-10-28T10:26:51.241Z,29.50
2022-10-28T10:29:19.723Z,31.50
2022-10-28T10:31:47.987Z,30.00
2022-10-28T10:34:33.781Z,33.50
2022-10-28T10:39:37.594Z,27.00
2022-10-28T10:42:16.054Z,26.00
2022-10-28T10:44:44.366Z,25.00
2022-10-28T10:47:17.174Z,20.00
2022-10-28T10:49:44.889Z,20.00
2022-10-28T10:52:20.422Z,24.00
2022-10-28T10:55:05.685Z,27.00
2022-10-28T10:57:33.796Z,23.00
2022-10-28T11:00:01.908Z,24.00
2022-10-28T11:02:39.705Z,26.50
2022-10-28T11:05:09.795Z,26.00
2022-10-28T11:07:40.569Z,32.00
2022-10-28T11:10:21.015Z,27.50
2022-10-28T11:12:53.288Z,20.00
2022-10-28T11:15:23.719Z,26.00
2022-10-28T11:17:59.377Z,23.00
2022-10-28T11:20:47.100Z,24.00
2022-10-28T11:23:29.973Z,23.00
2022-10-28T11:26:07.100Z,26.00
2022-10-28T11:28:43.785Z,22.50
2022-10-28T11:31:29.975Z,19.00
2022-10-28T11:34:16.679Z,25.50
2022-10-28T11:36:44.313Z,27.50
2022-10-28T11:39:19.625Z,25.00
2022-10-28T11:41:50.318Z,22.00
2022-10-28T11:44:33.296Z,22.00
2022-10-28T11:47:04.174Z,23.50
2022-10-28T11:49:39.336Z,26.00
2022-10-28T11:52:13.014Z,26.00
2022-10-28T11:54:49.977Z,21.00
2022-10-28T11:57:22.608Z,18.50
2022-10-28T11:59:59.585Z,21.00
2022-10-28T12:02:36.549Z,22.00
2022-10-28T12:05:04.550Z,23.00
2022-10-28T12:07:35.087Z,23.00
2022-10-28T12:10:19.694Z,20.00
2022-10-28T12:13:10.467Z,29.00
2022-10-28T12:15:44.316Z,17.00
2022-10-28T12:18:30.902Z,27.00
2022-10-28T12:21:02.039Z,24.00
2022-10-28T12:23:32.180Z,22.50
2022-10-28T12:26:01.441Z,27.00
2022-10-28T12:28:36.273Z,28.50
2022-10-28T12:31:07.370Z,26.00
2022-10-28T12:33:38.210Z,28.00
2022-10-28T12:36:09.226Z,26.00
2022-10-28T12:38:45.490Z,28.50
2022-10-28T12:41:19.393Z,21.00
2022-10-28T12:43:52.797Z,22.50
2022-10-28T12:46:26.270Z,22.00
2022-10-28T12:48:57.541Z,21.00
2022-10-28T12:51:30.728Z,16.00
2022-10-28T12:54:01.040Z,17.00
2022-10-28T12:56:33.490Z,18.00
2022-10-28T12:59:21.639Z,18.50
2022-10-28T13:01:49.956Z,14.00
2022-10-28T13:04:18.629Z,13.00
2022-10-28T13:06:55.929Z,18.00
2022-10-28T13:09:33.338Z,18.00
2022-10-28T13:12:23.408Z,20.50
2022-10-28T13:15:00.527Z,15.00
2022-10-28T13:17:31.834Z,16.00
2022-10-28T13:20:22.643Z,20.50
2022-10-28T13:22:59.717Z,14.00
2022-10-28T13:25:28.405Z,20.00
2022-10-28T13:28:00.569Z,17.50
2022-10-28T13:30:30.721Z,16.00
2022-10-28T13:33:01.660Z,17.50
2022-10-28T13:35:30.087Z,19.00
2022-10-28T13:37:58.972Z,17.00
2022-10-28T13:40:34.003Z,21.00
2022-10-28T13:43:02.325Z,18.00
2022-10-28T13:45:48.516Z,17.00
2022-10-28T13:48:28.264Z,18.00
2022-10-28T13:51:11.292Z,17.50
2022-10-28T13:53:45.258Z,17.00
2022-10-28T13:56:22.365Z,17.50
2022-10-28T13:58:59.347Z,17.00
2022-10-28T14:01:36.473Z,19.00
2022-10-28T14:04:05.794Z,18.50
2022-10-28T14:06:35.437Z,18.00
2022-10-28T14:09:03.376Z,15.00
2022-10-28T14:11:32.713Z,17.00
2022-10-28T14:14:02.560Z,17.00
2022-10-28T14:16:32.040Z,17.00
2022-10-28T14:19:02.667Z,16.00
2022-10-28T14:21:39.566Z,19.50
2022-10-28T14:24:09.429Z,18.50
2022-10-28T14:26:56.064Z,20.00
2022-10-28T14:29:28.036Z,17.00
2022-10-28T14:31:55.895Z,16.00
2022-10-28T14:34:30.715Z,16.00
2022-10-28T14:37:01.462Z,15.00
2022-10-28T14:39:38.988Z,17.50
2022-10-28T14:42:25.658Z,16.50
2022-10-28T14:45:12.369Z,15.50
2022-10-28T14:47:58.969Z,15.00
2022-10-28T14:50:32.232Z,17.00
2022-10-28T14:53:01.969Z,15.00
2022-10-28T14:55:33.635Z,19.50
2022-10-28T14:58:16.859Z,18.00
2022-10-28T15:01:05.085Z,14.00
2022-10-28T15:03:33.071Z,17.00
2022-10-28T15:06:19.619Z,16.00
2022-10-28T15:08:47.540Z,16.00
2022-10-28T15:11:16.299Z,19.00
2022-10-28T15:13:43.957Z,17.00
2022-10-28T15:16:25.235Z,16.00
2022-10-28T15:18:53.745Z,14.00
2022-10-28T15:21:22.268Z,16.00
2022-10-28T15:24:00.479Z,20.00
2022-10-28T15:26:28.815Z,20.00
2022-10-28T15:28:56.590Z,21.00
2022-10-28T15:31:24.760Z,20.00
2022-10-28T15:33:52.624Z,23.00
2022-10-28T15:36:25.369Z,18.00
2022-10-28T15:39:15.502Z,26.00
2022-10-28T15:41:49.722Z,26.00
2022-10-28T15:44:37.876Z,25.00
2022-10-28T15:47:23.244Z,27.00
2022-10-28T15:50:01.621Z,24.00
2022-10-28T15:52:34.232Z,29.00
2022-10-28T15:55:03.068Z,25.00
2022-10-28T15:57:46.247Z,27.00
2022-10-28T16:00:26.943Z,29.00
2022-10-28T16:02:56.261Z,27.00
2022-10-28T16:05:30.353Z,24.00
2022-10-28T16:08:02.697Z,31.50
2022-10-28T16:10:34.119Z,27.50
2022-10-28T16:13:07.624Z,32.50
2022-10-28T16:15:51.278Z,30.00
2022-10-28T16:18:19.656Z,36.00
2022-10-28T16:20:47.907Z,39.00
2022-10-28T16:23:17.215Z,32.00
2022-10-28T16:25:44.999Z,33.00
2022-10-28T16:28:21.558Z,41.00
2022-10-28T16:30:59.325Z,38.33
2022-10-28T16:33:30.512Z,42.67
2022-10-28T16:35:58.497Z,42.50
2022-10-28T16:38:26.718Z,41.67
2022-10-28T16:40:55.178Z,47.33
2022-10-28T16:43:24.774Z,39.00
2022-10-28T16:45:53.645Z,35.00
2022-10-28T16:48:23.137Z,36.67
2022-10-28T16:50:52.547Z,37.33
2022-10-28T16:53:20.567Z,41.00
2022-10-28T16:55:48.582Z,32.67
2022-10-28T16:58:17.068Z,38.33
2022-10-28T17:00:45.302Z,39.00
2022-10-28T17:03:14.990Z,42.50
2022-10-28T17:05:44.353Z,48.00
2022-10-28T17:08:12.532Z,51.33
2022-10-28T17:10:41.299Z,39.67
2022-10-28T17:13:13.382Z,42.00
2022-10-28T17:15:42.276Z,45.67
2022-10-28T17:18:11.158Z,38.50
2022-10-28T17:20:39.079Z,43.33
2022-10-28T17:23:07.187Z,38.00
2022-10-28T17:25:35.540Z,44.00
2022-10-28T17:28:03.718Z,57.00
2022-10-28T17:30:31.722Z,46.67
2022-10-28T17:32:59.628Z,45.50
2022-10-28T17:35:27.463Z,48.33
2022-10-28T17:37:55.698Z,46.00
2022-10-28T17:40:24.124Z,45.00
2022-10-28T17:42:52.056Z,40.67
2022-10-28T17:45:22.041Z,50.00
2022-10-28T17:47:50.169Z,44.00
2022-10-28T17:50:18.140Z,49.00
2022-10-28T17:52:46.015Z,50.00
2022-10-28T17:55:13.825Z,42.50
2022-10-28T17:57:41.863Z,46.67
2022-10-28T18:00:10.392Z,50.67
2022-10-28T18:02:41.043Z,51.67
2022-10-28T18:05:09.455Z,40.50
2022-10-28T18:07:37.119Z,40.67
2022-10-28T18:10:05.584Z,44.33
2022-10-28T18:12:33.353Z,44.00
2022-10-28T18:15:01.226Z,51.00
2022-10-28T18:17:29.106Z,40.50
2022-10-28T18:19:57.878Z,42.50
2022-10-28T18:24:58.310Z,39.00
2022-10-28T18:27:28.850Z,46.00
2022-10-28T18:29:56.822Z,47.00
2022-10-28T18:32:24.683Z,46.50
2022-10-28T18:34:52.603Z,42.67
2022-10-28T18:37:20.615Z,41.00
2022-10-28T18:39:48.390Z,33.00
2022-10-28T18:42:19.356Z,43.00
2022-10-28T18:44:49.043Z,42.00
2022-10-28T18:47:16.905Z,44.50
2022-10-28T18:49:45.715Z,38.00
2022-10-28T18:52:14.174Z,45.33
2022-10-28T18:54:41.929Z,46.50
2022-10-28T18:57:09.713Z,51.00
2022-10-28T18:59:52.354Z,45.50
2022-10-28T19:02:25.428Z,40.00
2022-10-28T19:04:53.341Z,46.50
2022-10-28T19:07:21.234Z,46.33
2022-10-28T19:09:49.107Z,36.50
2022-10-28T19:12:17.077Z,49.00
2022-10-28T19:14:44.839Z,43.00
2022-10-28T19:17:12.810Z,48.50
2022-10-28T19:19:40.688Z,48.00
2022-10-28T19:22:08.646Z,42.33
2022-10-28T19:24:36.518Z,50.00
2022-10-28T19:27:04.895Z,48.00
2022-10-28T19:29:32.733Z,48.00
2022-10-28T19:32:00.733Z,54.00
2022-10-28T19:34:28.779Z,47.00
2022-10-28T19:36:56.569Z,52.00
2022-10-28T19:39:24.459Z,59.67
2022-10-28T19:41:52.248Z,55.67
2022-10-28T19:44:20.263Z,54.00
2022-10-28T19:46:48.034Z,64.00
2022-10-28T19:49:16.002Z,53.00
2022-10-28T19:51:43.973Z,52.00
2022-10-28T19:54:12.638Z,54.50
2022-10-28T19:56:42.872Z,47.50
2022-10-28T19:59:10.826Z,57.00
2022-10-28T20:01:39.338Z,51.50
2022-10-28T20:04:08.054Z,49.00
2022-10-28T20:06:38.164Z,46.00
2022-10-28T20:09:07.130Z,39.00
2022-10-28T20:11:37.683Z,50.33
2022-10-28T20:14:09.095Z,61.33
2022-10-28T20:16:38.752Z,54.00
2022-10-28T20:19:06.490Z,55.67
2022-10-28T20:21:34.960Z,49.50
2022-10-28T20:24:04.440Z,52.67
2022-10-28T20:26:33.144Z,49.33
2022-10-28T20:29:04.090Z,49.50
2022-10-28T20:31:32.485Z,46.50
2022-10-28T20:34:03.647Z,58.00
2022-10-28T20:36:31.487Z,54.00
2022-10-28T20:38:59.960Z,49.00
2022-10-28T20:41:29.267Z,53.50
2022-10-28T20:43:57.504Z,51.33
2022-10-28T20:46:25.823Z,54.50
2022-10-28T20:48:56.884Z,55.00
2022-10-28T20:51:25.736Z,56.33
2022-10-28T20:53:54.016Z,48.00
2022-10-28T20:56:26.389Z,45.00
2022-10-28T20:58:55.192Z,44.33
2022-10-28T21:01:24.499Z,51.00
2022-10-28T21:03:54.674Z,49.00
2022-10-28T21:06:22.666Z,56.33
2022-10-28T21:08:50.446Z,57.00
2022-10-28T21:11:18.313Z,50.00
2022-10-28T21:13:51.873Z,51.00
2022-10-28T21:16:20.494Z,53.00
2022-10-28T21:18:48.600Z,52.50
2022-10-28T21:21:17.258Z,52.67
2022-10-28T21:23:45.442Z,56.00
2022-10-28T21:26:14.007Z,50.33
2022-10-28T21:28:42.183Z,46.33
2022-10-28T21:31:14.486Z,51.00
2022-10-28T21:33:43.169Z,54.00
2022-10-28T21:36:12.218Z,41.33
2022-10-28T21:38:39.995Z,50.00
2022-10-28T21:41:18.830Z,43.00
2022-10-28T21:43:48.537Z,44.50
2022-10-28T21:46:17.112Z,54.67
2022-10-28T21:48:45.196Z,50.50
2022-10-28T21:51:15.217Z,37.00
2022-10-28T21:53:44.270Z,43.67
2022-10-28T21:56:19.555Z,38.00
2022-10-28T21:58:48.549Z,43.00
2022-10-28T22:01:18.039Z,48.33
2022-10-28T22:03:46.120Z,52.67
2022-10-28T22:06:14.292Z,45.33
2022-10-28T22:08:42.356Z,49.33
2022-10-28T22:11:13.945Z,52.67
2022-10-28T22:13:42.186Z,39.00
2022-10-28T22:16:11.583Z,40.67
2022-10-28T22:18:39.346Z,44.00
2022-10-28T22:21:08.944Z,42.00
2022-10-28T22:23:36.924Z,39.00
2022-10-28T22:26:05.915Z,39.33
2022-10-28T22:28:34.046Z,39.00
2022-10-28T22:31:03.311Z,33.33
2022-10-28T22:33:31.280Z,34.00
2022-10-28T22:36:00.166Z,32.50
2022-10-28T22:38:28.119Z,37.00
2022-10-28T22:41:04.600Z,37.00
2022-10-28T22:43:32.660Z,36.50
2022-10-28T22:46:01.340Z,33.00
2022-10-28T22:48:29.520Z,36.50
2022-10-28T22:50:58.002Z,30.00
2022-10-28T22:53:26.275Z,36.00
2022-10-28T22:55:54.229Z,36.00
2022-10-28T22:58:22.543Z,35.00
2022-10-28T23:00:50.746Z,38.00
2022-10-28T23:03:19.053Z,37.00
2022-10-28T23:05:46.848Z,39.33
2022-10-28T23:08:15.632Z,40.00
2022-10-28T23:10:43.329Z,41.00
2022-10-28T23:13:12.597Z,49.00
2022-10-28T23:15:40.561Z,50.67
2022-10-28T23:18:08.426Z,51.00
2022-10-28T23:20:37.417Z,46.00
2022-10-28T23:23:05.190Z,46.33
2022-10-28T23:25:33.049Z,42.00
2022-10-28T23:28:00.925Z,42.67
2022-10-28T23:30:28.649Z,38.00
2022-10-28T23:32:59.430Z,39.67
2022-10-28T23:35:27.283Z,36.67
2022-10-28T23:37:55.311Z,40.00
2022-10-28T23:40:23.432Z,40.00
2022-10-28T23:42:51.396Z,38.00
2022-10-28T23:45:19.159Z,40.50
2022-10-28T23:47:47.134Z,31.00
2022-10-28T23:50:15.105Z,33.33
2022-10-28T23:52:43.077Z,33.50
2022-10-28T23:55:10.903Z,31.00
2022-10-28T23:57:38.830Z,34.00
